Airfield :
LOGIN :

Register | Disclaimer

   EN    FR    IT 

 










Legend :    VFR   Marginal VFR   IFR   Intensive IFR   Very Intensive IFR
Visi :
Ceiling :
>= 8 km
>= 3000ft
5 to 8 km
1000 to 3000 ft
1500m to 5 km
500 to 1000 ft
800 to 1500m
200 to 500 ft
< 800m
< 200 ft
Symbols :   Thunderstorms  Fog  Heavy snow  Heavy precipitations  Wind > 20 kt
SIGMETs :     Misc.  Thunderstorms  Icing  Turbulence  Mountain Waves  Volcanic Ashes






- Airport Elevation : 2776 ft
- IATA code : VLL


LEVD - Valladolid

CURRENT METAR :
  • 281830Z 05011KT CAVOK 26/06 Q1013

EXPIRED METARs :
  • 281800Z 04006KT CAVOK 28/06 Q1013
  • 281730Z 04010KT 010V070 9999 FEW049 29/07 Q1013
  • 281700Z 05006KT 030V090 9999 FEW049 29/07 Q1013
  • 281630Z 04009KT 320V080 9999 FEW049 29/07 Q1013
  • 281600Z 27004KT 9999 FEW049 30/06 Q1014

TAF TAF LEVD
Valid from the 28 at 15:00 until the 29 at 15:00 UTC


281400Z 2815/2915 VRB05KT CAVOK TX31/2815Z TN08/2906Z
BECMG 2819/2820 05010KT
BECMG 2906/2907 VRB05KT
PROB40
TEMPO 2914/2915 VRB15G25KT TSRA SHRA FEW035CB



MET'MAP, your aeronautical weather chart ! - Copyright ORBIFLY December 2007 - Disclaimer

ORBIFLY MET'MAP TEAM :

Programming & Development : Alexandra Zaïnal
Original concept : Baudouin d'Aumeries
Technical & hardware support : Manuel Goepfert
Assistance : Marc-Olivier Méhu

Contact : metmap@orbifly.com




SOURCES & CREDITS :

   NOAA